Patrick Singh

Recruteur - Rewa
28 Nov 2027
Dimanche
Processus

Personnalité

Adaptabilité (6) Ambition (2) Controverse (18) Loyauté (11) Pression (9) Professionnalisme (16) Sportivité (5) Tempérament (6)

Profil

Style d'entraînement Démocratique
Diplôme National B
Détermination 2
Gestion des joueurs 5
Motivation 4
Discipline 2
Satisfaction professionnelle
100%
Fatigue
0%
Rôle Recruteur
Salaire 18.9K p/s
Contrat 14.03.2028

Performance

Comportement Bon
Efficacité de l'entraînement
21%
Développement des joueurs
20%
Prévention des blessures
25%
Mise en place tactique
20%

Événements récents

A évalué un joueur maintenant
A évalué un joueur maintenant
A évalué un joueur maintenant
A évalué un joueur maintenant
A évalué un joueur maintenant
A évalué un joueur maintenant
A évalué un joueur maintenant
A évalué un joueur maintenant

Suivi en cours

739
Joueur Club Statut Capacité Confiance Observé Dernière observation Dernier vote
Iván Camacho Patriotas Actif 101 / 97 40% 3 27.11.2027 -
Jorge Pérez Real Santander Actif 84 / 89 40% 3 27.11.2027 -
Manuel Severich Gimnasia y Esgrima Actif 82 / 94 40% 3 27.11.2027 -
Emiliano Zambrano Gimnasia y Esgrima Actif 97 / 87 40% 7 27.11.2027 -
Lautaro Brienzo Arsenal Actif 102 / 98 40% 2 27.11.2027 -
Sergey Gaiduk Salyut Actif 82 / 78 40% 1 27.11.2027 -
Tomás Paredes Colón Actif 105 / 104 40% 6 26.11.2027 -
Santiago Chamorro Almagro Actif 90 / 96 40% 4 26.11.2027 -
Ariel Castellano Alvarado Actif 95 / 101 40% 1 26.11.2027 -
Tomás Pérez Serra Chacarita Juniors Actif 88 / 93 40% 1 26.11.2027 -
Rinat Shakerov Volga Actif 111 / 103 40% 1 26.11.2027 -
Sergio Gonzalez Universitario Popayan Actif 77 / 76 40% 4 25.11.2027 -
Luiz Artigas Actif 78 / 106 40% 5 25.11.2027 -
Lachie Charles Central Coast Mariners Actif 90 / 97 40% 3 25.11.2027 -
Martín Arenas O'Higgins Actif 102 / 104 40% 2 25.11.2027 -
Santiago Paulini Maipú Actif 88 / 108 40% 1 25.11.2027 -
Yusuff Adewale Novi Pazar Actif 97 / 83 40% 1 25.11.2027 -
Tito La Equidad Actif 92 / 80 40% 6 24.11.2027 -
Luciano Minhondo Uruguay Montevideo Actif 94 / 108 40% 6 24.11.2027 -
James Garbett Southern United Actif 84 / 75 40% 3 24.11.2027 -
Gabriel Carrasco Los Andes Actif 116 / 112 40% 3 24.11.2027 -
Pavel Prishivalko Belshina Actif 99 / 79 40% 1 24.11.2027 -
Adeola Olaleye Isloch Actif 72 / 84 40% 1 24.11.2027 -
James Nieuwenhuizen Melbourne City Actif 73 / 94 40% 4 23.11.2027 -
Milton Leyendeker Chacarita Juniors Actif 113 / 108 40% 2 23.11.2027 -
Andrea Zammit Valletta Actif 73 / 88 40% 1 23.11.2027 -
Nikita Kukhtik Niva Actif 54 / 77 40% 1 23.11.2027 -
James Pradic Nyva Actif 72 / 63 40% 1 23.11.2027 -
Paul Ortíz Miramar Misiones Actif 93 / 68 40% 5 22.11.2027 -
Emiliano Bermúdez Oriental Actif 99 / 97 40% 5 22.11.2027 -
José Ferrer Estudiantes de Merida Actif 103 / 108 40% 1 22.11.2027 -
Juan Pablo Córdoba Gimnasia y Esgrima Actif 111 / 107 40% 1 22.11.2027 -
Andrey Kukhotskovolets Ostrovets Actif 68 / 85 40% 1 22.11.2027 -
Danil Kuznetsov Dinamo Moscow Actif 77 / 77 40% 1 22.11.2027 -
Matías Mansilla Alvarado Actif 116 / 97 40% 8 21.11.2027 -
Matías Pérez Antofagasta Actif 98 / 100 40% 2 21.11.2027 -
Tobías Correa Uruguay Montevideo Actif 99 / 114 40% 5 21.11.2027 -
Shaun MacDonald Cheltenham Town Actif 72 / 96 40% 1 21.11.2027 -
Arseny Vainer Nosta Actif 86 / 76 40% 1 21.11.2027 -
Sani Rizki Persebaya Actif 64 / 76 40% 1 21.11.2027 -
Cebo Mchunu Valletta Actif 86 / 102 40% 1 21.11.2027 -
Sairusi Nalaubu Lautoka Actif 87 / 79 40% 10 20.11.2027 -
Patrick Joseph Ba Actif 67 / 65 40% 1 20.11.2027 -
Luciano Paredes Maipú Actif 104 / 120 40% 7 19.11.2027 -
Federico Álvarez Atlanta Actif 95 / 95 40% 5 19.11.2027 -
Sandro Embaló PSBS Biak Actif 98 / 84 40% 1 19.11.2027 -
Ivan Stosh Osipovichi Actif 54 / 55 40% 1 19.11.2027 -
Yegor Sidorov Kosmos Actif 88 / 54 40% 1 19.11.2027 -
Bilal Akhjadov Dinamo Kirov Actif 73 / 69 40% 1 19.11.2027 -
Thiago D'Archivio Alvarado Actif 93 / 72 40% 7 18.11.2027 -
Aldair Ramírez Union Magdalena Actif 109 / 80 40% 2 18.11.2027 -
Franco Sivetti Gimnasia y Tiro Actif 96 / 100 40% 5 17.11.2027 -
Freddy Gomez Universitario Popayan Actif 111 / 94 40% 6 17.11.2027 -
Gastón Fernández Chacarita Juniors Actif 95 / 100 40% 7 17.11.2027 -
Daniel Marín Union Magdalena Actif 81 / 84 40% 5 17.11.2027 -
Nicolás Servetto Madryn Actif 113 / 101 40% 2 17.11.2027 -
Vadim Averkiev Orel Actif 80 / 84 40% 1 17.11.2027 -
Aaron Lewis NK Varazdin Actif 98 / 94 40% 1 17.11.2027 -
Angel Uñates Güemes Actif 87 / 99 40% 5 16.11.2027 -
Vasiliy Vasilenko Baranovichi Actif 71 / 98 40% 1 16.11.2027 -
Gino Olguín Ferro Carril Oeste Actif 124 / 115 40% 1 16.11.2027 -
Anton Betyuzhnov Dinamo Vologda Actif 71 / 73 40% 1 16.11.2027 -
Pavel Vakulich Osipovichi Actif 59 / 57 40% 1 15.11.2027 -
Maxim Moskovets Uralets-TS Actif 83 / 94 40% 1 15.11.2027 -
William O'Sullivan LNZ Actif 89 / 113 40% 1 15.11.2027 -
Adam Moseley NK Zavrc Actif 79 / 90 40% 1 15.11.2027 -
Enzo Romero Vitória Actif 95 / 90 40% 2 14.11.2027 -
Alfonso de Luca Liverpool Montevideo Actif 84 / 105 40% 1 14.11.2027 -
Kishan Sami Ba Actif 80 / 82 40% 4 13.11.2027 -
Joe Knowles Auckland FC Actif 102 / 87 40% 3 13.11.2027 -
Valentín Nogueira Santiago Wanderers Actif 82 / 86 40% 2 13.11.2027 -
Tiago Pucciarelli All Boys Actif 95 / 108 40% 2 13.11.2027 -
Rosyad Setiawan Semen Padang Actif 63 / 70 40% 1 13.11.2027 -
Nehemías Rodríguez Atenas Actif 99 / 83 40% 1 13.11.2027 -
Gabriel Díaz Patronato Actif 105 / 114 40% 1 13.11.2027 -
Gabriel Maureira Colo-Colo Actif 85 / 75 40% 1 13.11.2027 -
Lorenzo Orzán Colón Actif 102 / 108 40% 3 12.11.2027 -
Marco Campagnaro Maipú Actif 109 / 91 40% 10 12.11.2027 -
Tiago Libares All Boys Actif 98 / 106 40% 5 12.11.2027 -
Harlan Suardi PSIM Actif 79 / 95 40% 1 12.11.2027 -
Ramiro Jara Racing Actif 94 / 95 40% 1 12.11.2027 -
Ihojan Pérez Cerro Largo Actif 95 / 97 40% 3 11.11.2027 -
Lucas Vega Almirante Brown Actif 92 / 99 40% 2 11.11.2027 -
Wilmer Bustamante Real Santander Actif 101 / 76 40% 2 10.11.2027 -
Diego Robles Union Espanola Actif 90 / 83 40% 1 10.11.2027 -
Sebastián Gallardo Talleres Actif 90 / 99 40% 8 09.11.2027 -
Franco Quiroz All Boys Actif 111 / 96 40% 2 09.11.2027 -
Claudio Campostrini All Boys Actif 123 / 95 40% 1 09.11.2027 -
German Vallejo Atlético Tucumán Actif 98 / 77 40% 1 09.11.2027 -
Francisco Vergara Gimnasia La Plata Actif 108 / 116 40% 3 08.11.2027 -
Lusiel Gómez La Luz Actif 88 / 103 40% 2 08.11.2027 -
Giancarlo García Deportivo Pereira Actif 92 / 93 40% 2 08.11.2027 -
Gabriel Marín Union Magdalena Actif 85 / 86 40% 2 08.11.2027 -
Iván Fernández Colegiales Actif 91 / 97 40% 5 07.11.2027 -
Lucas Richarte Temperley Actif 87 / 119 40% 5 07.11.2027 -
Mauricio Lacerda Miramar Misiones Actif 92 / 82 40% 2 07.11.2027 -
Nazareno Petrecca Nueva Chicago Actif 81 / 94 40% 2 07.11.2027 -
Juan Esteban Larrahondo Union Magdalena Actif 91 / 112 40% 1 07.11.2027 -
Joela Biuvanua Lautoka Actif 59 / 53 40% 1 07.11.2027 -
Alejandro Santander Cobresal Actif 97 / 99 40% 5 05.11.2027 -
Cristian Peñate Barranquilla Actif 103 / 98 40% 2 05.11.2027 -
Jeremías Robledo Acosta Newell's Old Boys Actif 85 / 113 40% 2 05.11.2027 -
Juan David Ramírez Leones Actif 98 / 92 40% 1 05.11.2027 -
Facundo Parada Racing Actif 90 / 89 40% 2 04.11.2027 -
Facundo Pons San Martín Actif 114 / 108 40% 6 04.11.2027 -
Leandro Vilte Central Norte Actif 73 / 86 40% 1 04.11.2027 -
Axel Afonso Atlético Tucumán Actif 99 / 100 40% 1 04.11.2027 -
Joaquín Mancuso Vélez Actif 82 / 88 40% 2 03.11.2027 -
Wilmar Gonzalez Universitario Popayan Actif 96 / 88 40% 3 03.11.2027 -
Juan Diego Perdomo Depor Actif 73 / 78 40% 6 03.11.2027 -
José Alburquenque Universidad de Chile Actif 71 / 98 40% 2 02.11.2027 -
Gary Silva Progreso Actif 88 / 114 40% 2 02.11.2027 -
Facundo Infante Talleres Actif 80 / 103 40% 2 02.11.2027 -
Johao Camacho Real Santander Actif 99 / 78 40% 1 02.11.2027 -
Matías Canedo Rampla Juniors Actif 84 / 104 40% 4 01.11.2027 -
Anderson Gutiérrez Santa Fe Actif 80 / 105 40% 2 01.11.2027 -
Franco Tejera Oriental Actif 71 / 75 40% 3 01.11.2027 -
Tiago Benzi Belgrano Actif 112 / 105 40% 1 01.11.2027 -
Dylan Salvo Defensores Unidos Actif 112 / 112 40% 7 31.10.2027 -
Mateo Pereyra Tacuarembo Actif 85 / 92 40% 6 31.10.2027 -
Gabriel Altamirano Almirante Brown Actif 118 / 123 40% 7 31.10.2027 -
Agustín Lavezzi Quilmes Actif 121 / 99 40% 4 31.10.2027 -
Roberto Ramírez Godoy Cruz Actif 131 / 111 40% 4 31.10.2027 -
Lautaro Martínez Racing Club Actif 94 / 104 40% 1 31.10.2027 -
Elías Calderón Central Norte Actif 118 / 120 40% 3 30.10.2027 -
Iván Cabrera Arsenal Actif 123 / 96 40% 1 30.10.2027 -
Matías García San Martín Actif 118 / 112 40% 5 29.10.2027 -
Miswar Saputra Madura United Actif 90 / 66 40% 1 29.10.2027 -
Ángel Maciel Tacuarembo Actif 124 / 120 40% 1 29.10.2027 -
Mateo Natale Defensores Actif 106 / 105 40% 4 28.10.2027 -
Valentino Felicetti Rampla Juniors Actif 74 / 97 40% 1 28.10.2027 -
Diego Opazo Santiago Wanderers Actif 95 / 91 40% 1 28.10.2027 -
Franco Tassitani San Telmo Actif 71 / 103 40% 1 28.10.2027 -
Bayron Martínez Santiago Wanderers Actif 91 / 97 40% 1 27.10.2027 -
Kevin Lezcano Guarani Actif 73 / 73 40% 1 27.10.2027 -
Luciano Batista Cerrito Actif 78 / 110 40% 5 26.10.2027 -
Joaquín Moreira Tacuarembo Actif 71 / 101 40% 3 26.10.2027 -
Cristian González Cerrito Actif 93 / 94 40% 2 26.10.2027 -
Braian Cabral Madryn Actif 80 / 106 40% 3 25.10.2027 -
Brayan Troncoso Iquique Actif 95 / 98 40% 3 25.10.2027 -
Enzo Romero Defensa y Justicia Actif 75 / 92 40% 1 25.10.2027 -
Matías Benítez San Miguel Actif 91 / 115 40% 9 24.10.2027 -
Kou Gotou Vegalta Sendai Actif 107 / 85 40% 2 24.10.2027 -
Ronald Angulo Deportes Quindio Actif 104 / 105 40% 1 24.10.2027 -
Gonzalo Rostagno Racing Actif 122 / 104 40% 4 23.10.2027 -
Juan Alberto Mosquera Santa Fe Actif 89 / 107 40% 4 23.10.2027 -
Ramiro Balbuena Nueva Chicago Actif 103 / 89 40% 4 23.10.2027 -
Tobías Mendoza Estudiantes Actif 78 / 82 40% 1 23.10.2027 -
Martín Coirolo Colon Actif 94 / 77 40% 1 23.10.2027 -
Juan Román Gimenez Estudiantes Actif 110 / 94 40% 1 23.10.2027 -
Regont Murati Auckland City Actif 92 / 70 40% 2 22.10.2027 -
Samuel Molano Patriotas Actif 75 / 103 40% 1 22.10.2027 -
Luis Yanes Real Cartagena Actif 90 / 103 40% 5 21.10.2027 -
Alexis Melo All Boys Actif 119 / 105 40% 4 21.10.2027 -
Segundo Pachamé Plaza Colonia Actif 119 / 120 40% 2 21.10.2027 -
Lautaro Díaz San Martín Actif 94 / 100 40% 1 21.10.2027 -
Ilham Udin Armayn PSBS Biak Actif 70 / 68 40% 1 21.10.2027 -
Thomas Correa Chacarita Juniors Actif 66 / 88 40% 2 20.10.2027 -
Francisco Gualtieri Estudiantes Actif 107 / 111 40% 2 20.10.2027 -
Silvio López Wanderers Actif 97 / 82 40% 2 20.10.2027 -
Oscar Gqeke Western Sydney Wanderers Actif 82 / 96 40% 1 20.10.2027 -
Joaquín Ochoa Giménez Arsenal Actif 105 / 98 40% 1 20.10.2027 -
Lautaro Espeche Instituto Actif 114 / 92 40% 5 19.10.2027 -
Franco Caro Racing Actif 88 / 69 40% 1 19.10.2027 -
Alex Barbarouses Southern United Actif 67 / 70 40% 1 19.10.2027 -
Tomás Díaz Grassano San Miguel Actif 105 / 108 40% 2 18.10.2027 -
Tommy Fenton Southern United Actif 86 / 90 40% 6 17.10.2027 -
Sebastián Macías Deportivo Pasto Actif 110 / 115 40% 3 17.10.2027 -
Felipe Ordoñez Deportivo Pasto Actif 93 / 100 40% 3 17.10.2027 -
Ignacio Tinelli Palestino Actif 83 / 81 40% 2 17.10.2027 -
Evelio Cardozo Nueva Chicago Actif 89 / 95 40% 2 17.10.2027 -
Elías Contreras Morón Actif 99 / 99 40% 1 16.10.2027 -
Felipe Rivarola San Martín Actif 90 / 96 40% 3 15.10.2027 -
Iván More Palestino Actif 105 / 83 40% 2 15.10.2027 -
Joaquín Silva Plaza Colonia Actif 102 / 107 40% 2 15.10.2027 -
Nicolás Morro Defensores Actif 93 / 110 40% 2 15.10.2027 -
Callum Stamatelopoulos Canterbury United Actif 78 / 60 40% 1 15.10.2027 -
Martín Farías Cerro Actif 79 / 94 40% 2 14.10.2027 -
Ramiro Giannone Alianza Petrolera Actif 88 / 87 40% 3 14.10.2027 -
Abel Argañaraz Gimnasia y Esgrima Actif 97 / 115 40% 6 14.10.2027 -
Alex Robinson Macarthur FC Actif 96 / 97 40% 3 14.10.2027 -
Gerbin Silva Aguilas Doradas Actif 95 / 102 40% 2 13.10.2027 -
Facundo Borges Central Espanol Actif 106 / 100 40% 1 13.10.2027 -
Éwil Murillo Santa Fe Actif 116 / 122 40% 5 12.10.2027 -
Francisco Mongelos Sportivo Luqueno Actif 73 / 81 40% 2 12.10.2027 -
Danny Castro Deportes Tolima Actif 79 / 86 40% 1 12.10.2027 -
Rodrigo Arnay Güemes Actif 87 / 80 40% 3 11.10.2027 -
Kevin Ceceri San Miguel Actif 110 / 110 40% 2 11.10.2027 -
Javier Bustillos Los Andes Actif 97 / 90 40% 8 10.10.2027 -
Tomás Sinópoli Gimnasia y Tiro Actif 93 / 93 40% 2 10.10.2027 -
Iván Vaquero Morón Actif 122 / 122 40% 1 10.10.2027 -
Antonio Martínez Cerro Porteno Actif 84 / 76 40% 1 10.10.2027 -
Gerónimo Blanco River Plate Actif 92 / 98 40% 1 10.10.2027 -
Juan Ignacio Blanco Defensor Sporting Actif 83 / 88 40% 3 09.10.2027 -
Gonzalo Asis Almagro Actif 116 / 128 40% 5 09.10.2027 -
Henry Blackledge Adelaide United Actif 65 / 86 40% 1 09.10.2027 -
Pavel Núñez San Martín SJ Actif 99 / 74 40% 1 09.10.2027 -
Gabriel Risso Patrón Colón Actif 118 / 120 40% 1 08.10.2027 -
James Barbarouses Canterbury United Actif 71 / 75 40% 1 08.10.2027 -
Esteban Rodríguez Uruguay Montevideo Actif 81 / 84 40% 5 07.10.2027 -
Lisandro Morrone Temperley Actif 100 / 100 40% 2 07.10.2027 -
Jeremy Foo Auckland City Actif 85 / 85 40% 3 07.10.2027 -
Noah Lewis Waitakere United Actif 63 / 89 40% 1 07.10.2027 -
Martín Araya Palestino Actif 93 / 87 40% 2 06.10.2027 -
Rodrigo Fernández Alvarado Actif 70 / 75 40% 1 06.10.2027 -
Pedro Ramallo Albion Actif 78 / 95 40% 1 06.10.2027 -
Julián Lobelos Arsenal Actif 117 / 110 40% 2 05.10.2027 -
Julián Alcar Banfield Actif 96 / 88 40% 2 05.10.2027 -
Thiago Deangelis Quilmes Actif 95 / 97 40% 2 04.10.2027 -
Federico Acosta Miramar Misiones Actif 103 / 96 40% 3 04.10.2027 -
Brian Lapaz Oriental Actif 77 / 100 40% 2 04.10.2027 -
Adrián Acosta Liverpool Montevideo Actif 66 / 74 40% 1 04.10.2027 -
Kleyman Ochoa Llaneros Actif 68 / 80 40% 3 03.10.2027 -
Andres Lemos Valledupar Actif 67 / 86 40% 1 03.10.2027 -
Tobías Barrionuevo Gimnasia y Tiro Actif 67 / 67 40% 1 02.10.2027 -
Nicolás Moreno San Martín Actif 119 / 106 40% 5 01.10.2027 -
Santiago Ahumada Real Santander Actif 75 / 87 40% 3 01.10.2027 -
Tomás Silva Maipú Actif 111 / 92 40% 1 01.10.2027 -
Dilan Acosta Defensores Actif 85 / 89 40% 1 30.09.2027 -
Emiliano Navas Gimnasia y Tiro Actif 102 / 97 40% 3 29.09.2027 -
Facundo Vigo Atenas Actif 92 / 81 40% 2 29.09.2027 -
Renzo Sastre Madryn Actif 77 / 90 40% 1 29.09.2027 -
Matías Romero Nueva Chicago Actif 93 / 107 40% 2 28.09.2027 -
Alan Olinick Racing Actif 95 / 94 40% 1 28.09.2027 -
Tomás Pastorino Liverpool Montevideo Actif 96 / 101 40% 1 28.09.2027 -
Wataru Kamijo Sydney FC Actif 95 / 84 40% 3 27.09.2027 -
Víctor Barrera Maipú Actif 93 / 108 40% 5 27.09.2027 -
Aron Agüero Maipú Actif 108 / 100 40% 2 27.09.2027 -
Juan Camilo Castillo Fortaleza CEIF Actif 115 / 103 40% 3 26.09.2027 -
Hugo Gaona Sportivo Luqueno Actif 102 / 100 40% 1 26.09.2027 -
Román Albornoz Temperley Actif 75 / 88 40% 2 25.09.2027 -
Lionel Gómez Independiente Actif 84 / 90 40% 1 25.09.2027 -
Gianluca Mancuso Central Norte Actif 95 / 98 40% 2 24.09.2027 -
Agustín Aleo Central Norte Actif 124 / 120 40% 2 24.09.2027 -
Guillermo Gómez Real Cartagena Actif 101 / 94 40% 1 24.09.2027 -
Pablo Cáceres Morón Actif 96 / 108 40% 5 23.09.2027 -
Joaquín García Plaza Colonia Actif 85 / 82 40% 2 23.09.2027 -
Nicolás Casa Gimnasia y Esgrima Actif 72 / 78 40% 1 23.09.2027 -
Diego Castillo Valledupar Actif 88 / 93 40% 1 22.09.2027 -
Gus Hoefsloot Sydney FC Actif 66 / 74 40% 3 21.09.2027 -
Rodrigo Fumo Estudiantes Actif 101 / 75 40% 2 21.09.2027 -
Fabricio Hass Central Norte Actif 92 / 91 40% 1 20.09.2027 -
Freddy Molina Union Magdalena Actif 91 / 108 40% 3 19.09.2027 -
Bautista González Defensores Actif 92 / 86 40% 2 19.09.2027 -
Ignacio Palacio All Boys Actif 126 / 96 40% 2 19.09.2027 -
Enzo Abondetto Central Norte Actif 108 / 104 40% 3 18.09.2027 -
Matías Caballero Patronato Actif 101 / 91 40% 2 18.09.2027 -
Santiago Cubides Jaguares Actif 102 / 94 40% 1 18.09.2027 -
Jeremías Rodríguez Puch Atlanta Actif 125 / 114 40% 1 18.09.2027 -
Luis Bonilla Union Magdalena Actif 76 / 90 40% 2 17.09.2027 -
Tomás Giménez Gimnasia y Esgrima Actif 106 / 126 40% 5 16.09.2027 -
Zane Schreiber Newcastle Jets Actif 82 / 91 40% 2 16.09.2027 -
Aldo Pérez Guarani Actif 123 / 108 40% 1 16.09.2027 -
Yeifer Herrera Leones Actif 79 / 77 40% 2 15.09.2027 -
Benjamín Garay Los Andes Actif 99 / 74 40% 2 14.09.2027 -
Tomás Barbero Defensores Unidos Actif 84 / 110 40% 2 13.09.2027 -
Román Gutiérrez Albion Actif 100 / 77 40% 1 12.09.2027 -
Giuliano Peralta Racing Actif 75 / 90 40% 1 11.09.2027 -
Adrián Rivas Llaneros Actif 98 / 87 40% 1 11.09.2027 -
Agustín Zapata Alvarado Actif 74 / 103 40% 2 10.09.2027 -
Miguel Mina La Equidad Actif 97 / 77 40% 1 10.09.2027 -
Jean Lucas Severo Defensor Sporting Actif 87 / 86 40% 1 10.09.2027 -
Hernán Sanabria Barracas Central Actif 104 / 90 40% 1 10.09.2027 -
Jimmy Martínez Universidad Catolica Actif 90 / 103 40% 1 09.09.2027 -
Matías Vera Nueva Chicago Actif 105 / 105 40% 1 09.09.2027 -
Augusto Subirats Jaguares Actif 73 / 96 40% 1 09.09.2027 -
Gabriel Ratalín San Telmo Actif 106 / 94 40% 3 08.09.2027 -
Max Vartuli Western Sydney Wanderers Actif 88 / 100 40% 1 08.09.2027 -
Matías Jaime Plaza Colonia Actif 85 / 71 40% 1 08.09.2027 -
Facundo Pérez Juventud Actif 102 / 113 40% 3 07.09.2027 -
Franco Caro Defensores Actif 84 / 93 40% 5 07.09.2027 -
Lucas Ortíz Uruguay Montevideo Actif 76 / 99 40% 4 07.09.2027 -
Sabino González Sarmiento Actif 85 / 104 40% 3 07.09.2027 -
Leonel Moreno Talleres Actif 92 / 77 40% 2 07.09.2027 -
Khaled Kamal Bhayangkara Presisi Actif 72 / 67 40% 2 07.09.2027 -
Emmanuel Gómez Riga Alvarado Actif 131 / 118 40% 2 06.09.2027 -
Rafael Ospina Universitario Popayan Actif 94 / 110 40% 2 06.09.2027 -
Joaquín Soto Union La Calera Actif 82 / 85 40% 1 04.09.2027 -
Ridho Syuhada Maluku Utara United Actif 77 / 58 40% 1 04.09.2027 -
Facundo Barreto Colon Actif 78 / 86 40% 2 03.09.2027 -
Nahuel Píriz Tacuarembo Actif 80 / 103 40% 4 02.09.2027 -
Jhon Cortez Barranquilla Actif 86 / 97 40% 2 01.09.2027 -
Riley Dalziell Auckland FC Actif 82 / 97 40% 2 01.09.2027 -
Kevin Torena Cerro Actif 91 / 93 40% 2 01.09.2027 -
Aporosa Yada Labasa Actif 70 / 73 30% 1 / 1m 01.09.2027 -
Gastón Unrein River Plate Actif 80 / 78 40% 1 01.09.2027 -
Brian Mancini Rampla Juniors Actif 98 / 97 40% 1 01.09.2027 -
Lucas Martínez River Plate Actif 76 / 72 40% 1 01.09.2027 -
Jack Warshawsky Melbourne Victory Actif 86 / 110 40% 2 31.08.2027 -
Jeison Angulo Santa Fe Actif 107 / 117 40% 2 31.08.2027 -
Felix Mosquera Deportes Quindio Actif 110 / 105 40% 3 29.08.2027 -
Nicolás Ruotola Juventud Actif 80 / 82 40% 2 29.08.2027 -
Leandro Barro Gimnasia y Esgrima Actif 106 / 118 40% 2 29.08.2027 -
Tomás Amato Defensores Actif 94 / 103 40% 1 29.08.2027 -
James Hilton Macarthur FC Actif 87 / 67 40% 5 28.08.2027 -
Arkhan Kaka Persis Actif 73 / 80 40% 1 28.08.2027 -
Agustín Acosta Atenas Actif 113 / 81 40% 4 27.08.2027 -
Nazareno Kihm Ferro Carril Oeste Actif 94 / 110 40% 1 27.08.2027 -
Daniel Graskoski Newcastle Jets Actif 58 / 71 40% 1 26.08.2027 -
Facundo Núñez Liverpool Montevideo Actif 82 / 87 40% 1 26.08.2027 -
Dunkan Dorrego Juventud Actif 98 / 99 40% 1 26.08.2027 -
Ramiro Fernández Almirante Brown Actif 98 / 104 40% 6 25.08.2027 -
Federico Mekbel Arsenal Actif 95 / 86 40% 1 25.08.2027 -
Mateo Albornoz Patriotas Actif 101 / 96 40% 3 23.08.2027 -
Noah Boxall Canterbury United Actif 81 / 84 40% 2 23.08.2027 -
Valentín Dutruel Racing Actif 97 / 98 40% 5 22.08.2027 -
Irfan Jauhari Persis Actif 95 / 99 40% 1 22.08.2027 -
José Duarte Tacuarembo Actif 74 / 84 40% 1 22.08.2027 -
Benjamín Tapia San Marcos de Arica Actif 88 / 71 40% 1 22.08.2027 -
Fabian Talladira Adelaide United Actif 92 / 82 40% 9 21.08.2027 -
Jesús Lara Metropolitanos Actif 89 / 80 40% 1 21.08.2027 -
Mauricio Liñán Alianza Petrolera Actif 82 / 106 40% 1 21.08.2027 -
Nicolás Matamoros O'Higgins Actif 81 / 87 40% 1 21.08.2027 -
Jose Rangel Valledupar Actif 84 / 91 40% 3 20.08.2027 -
Cristian Baldovino Alianza Petrolera Actif 85 / 87 40% 1 20.08.2027 -
Thiago Santi River Plate Actif 91 / 88 40% 1 18.08.2027 -
Jonathan Díaz Temperley Actif 74 / 87 40% 1 18.08.2027 -
Juan Álvarez Uruguay Montevideo Actif 104 / 75 40% 1 18.08.2027 -
Rocco Pasquale Atlanta Actif 98 / 78 40% 2 17.08.2027 -
Jeifer Nontoa Banfield Actif 90 / 78 40% 2 17.08.2027 -
Joel Bertolissio Newcastle Jets Actif 87 / 92 40% 2 17.08.2027 -
Joaquín Zappacosta Morón Actif 99 / 81 40% 2 17.08.2027 -
Gonzalo Robles Racing Actif 89 / 79 40% 1 17.08.2027 -
Rody Gómez Aragua Actif 67 / 68 40% 1 16.08.2027 -
Jesús Mejía Real Santander Actif 73 / 88 40% 1 15.08.2027 -
Ezequiel Ramírez All Boys Actif 107 / 99 40% 1 15.08.2027 -
Owen Van Hattum Hawke's Bay United Actif 57 / 78 40% 1 13.08.2027 -
Lautaro Fernández Progreso Actif 83 / 70 40% 1 13.08.2027 -
Simón Romero Independiente Medellin Actif 84 / 73 40% 1 13.08.2027 -
David Gallardo Gimnasia y Esgrima Actif 118 / 114 40% 4 12.08.2027 -
Marcelo Miño Ferro Carril Oeste Actif 102 / 114 40% 3 12.08.2027 -
Oscar Zapata Universitario Popayan Actif 82 / 107 40% 1 12.08.2027 -
Iván Barbona Colón Actif 102 / 108 40% 4 11.08.2027 -
Achmad Figo Borneo Actif 67 / 64 40% 1 11.08.2027 -
Stefan Herrera Defensores Unidos Actif 84 / 67 40% 1 11.08.2027 -
Juan David Viáfara Depor Actif 68 / 99 40% 1 10.08.2027 -
Gustavo Dionisi Guarani Actif 96 / 82 40% 1 10.08.2027 -
Mateo Guerra San Luis Actif 82 / 80 40% 2 08.08.2027 -
Juan José Vásquez Union Magdalena Actif 103 / 86 40% 2 08.08.2027 -
Santino Dudar Ferro Carril Oeste Actif 94 / 96 40% 1 08.08.2027 -
José Mejía Tigres Actif 81 / 91 40% 2 07.08.2027 -
Juan Pablo García Atlético Tucumán Actif 83 / 109 40% 1 07.08.2027 -
Wiler Garzón Bogota Actif 96 / 75 40% 3 06.08.2027 -
Reagan Ogle Perth Glory Actif 94 / 95 40% 2 06.08.2027 -
Joe Lacey Sydney FC Actif 75 / 94 40% 1 05.08.2027 -
Deimer Longas Union Magdalena Actif 97 / 86 40% 1 05.08.2027 -
Agustín Requena Progreso Actif 119 / 97 40% 1 04.08.2027 -
Bautista Casas Medina Alvarado Actif 79 / 73 40% 1 04.08.2027 -
Barrie Limoki Nadroga Actif 57 / 61 40% 2 03.08.2027 -
Renzo Conechny Tristán Suárez Actif 117 / 94 40% 1 03.08.2027 -
Sam Smith Canterbury United Actif 67 / 72 40% 2 02.08.2027 -
José María Ingratti Mitre Actif 112 / 119 40% 1 02.08.2027 -
Carlos Jiménez Sport Huancayo Actif 87 / 100 40% 1 02.08.2027 -
Lautaro César Talleres Actif 80 / 101 40% 3 01.08.2027 -
Lionel Madriaga Belgrano Actif 103 / 94 40% 3 01.08.2027 -
Adriel da Silva Oriental Actif 83 / 68 40% 1 01.08.2027 -
Miguel González Danubio Actif 91 / 74 40% 2 31.07.2027 -
Valentino Buccolo Platense Actif 100 / 100 40% 1 31.07.2027 -
Nahuel López Nacional Actif 89 / 88 40% 1 31.07.2027 -
Riley Foxe Perth Glory Actif 78 / 105 40% 7 30.07.2027 -
Adama Coulibaly Wellington Phoenix Actif 92 / 80 40% 2 30.07.2027 -
Alan Salmantón Talleres Actif 107 / 107 40% 1 28.07.2027 -
Alexis Carvallo Deportivo Maldonado Actif 73 / 83 40% 1 28.07.2027 -
Valentín Chocobar Chacarita Juniors Actif 100 / 113 40% 2 27.07.2027 -
Santiago Camacho Estudiantes Actif 100 / 109 40% 1 27.07.2027 -
Agustín Bindella Quilmes Actif 103 / 113 40% 2 26.07.2027 -
Francisco Funes Los Andes Actif 98 / 96 40% 1 26.07.2027 -
Mathías Silvera Chaco For Ever Actif 97 / 96 40% 1 26.07.2027 -
Gustavo Rigazzi Union La Calera Actif 97 / 86 40% 1 26.07.2027 -
Julen Ansó Liverpool Montevideo Actif 97 / 103 40% 1 25.07.2027 -
Diego Melgarejo Sportivo Trinidense Actif 109 / 100 40% 1 25.07.2027 -
Yeison Castillo Real Santander Actif 78 / 103 40% 1 25.07.2027 -
Camilo Astroza Santiago Wanderers Actif 76 / 83 40% 1 24.07.2027 -
Joel Lucero Estudiantes Actif 81 / 90 40% 1 24.07.2027 -
Kevin Redondo Defensores Unidos Actif 111 / 74 40% 6 23.07.2027 -
Matías Cantero All Boys Actif 76 / 100 40% 2 23.07.2027 -
Santiago Rodríguez Fenix Actif 88 / 89 40% 2 22.07.2027 -
Tadiwanashe Kuzamba Perth Glory Actif 85 / 103 40% 1 22.07.2027 -
Thiago Delgado Atlético Tucumán Actif 90 / 96 40% 1 22.07.2027 -
Tiago Goncalvez Depor Actif 76 / 94 40% 2 21.07.2027 -
Yan Marmolejo Bogota Actif 98 / 100 40% 2 21.07.2027 -
Juan Galetto Gimnasia y Tiro Actif 103 / 103 40% 2 20.07.2027 -
Mario Briceño Huachipato Actif 87 / 83 40% 3 20.07.2027 -
Alejo Fontanilla Estudiantes Actif 88 / 81 40% 1 20.07.2027 -
Santino Bacciadone Banfield Actif 94 / 82 40% 2 19.07.2027 -
Ramiro Makarte Alvarado Actif 91 / 109 40% 1 19.07.2027 -
Santiago Correa Godoy Cruz Actif 72 / 105 40% 1 19.07.2027 -
Santino Colangelo Almagro Actif 83 / 89 40% 3 18.07.2027 -
Mariano Santiago Almirante Brown Actif 98 / 129 40% 3 18.07.2027 -
Santiago Ruiz Tigre Actif 68 / 69 40% 2 17.07.2027 -
Agustín Barreiro Belgrano Actif 83 / 71 40% 2 17.07.2027 -
Tomás Lecanda Agropecuario Argentino Actif 104 / 119 40% 2 16.07.2027 -
Pablo Ospina Deportes Quindio Actif 99 / 83 40% 1 16.07.2027 -
Richard Nkomo Newcastle Jets Actif 67 / 91 40% 2 15.07.2027 -
Alan Rivero Almirante Brown Actif 67 / 105 40% 2 14.07.2027 -
Joaquín Toranzo Sarmiento Actif 79 / 85 40% 2 14.07.2027 -
Agustín da Rocha Cerrito Actif 95 / 83 40% 1 14.07.2027 -
David Maguicha Atlanta Actif 89 / 91 40% 1 13.07.2027 -
Jhonier Julio Depor Actif 93 / 96 40% 1 13.07.2027 -
Ethan Cox Adelaide United Actif 100 / 83 40% 3 12.07.2027 -
Ítalo Sulbarán Zamora Actif 95 / 91 40% 2 12.07.2027 -
Lucas Wolfert Racing Club Actif 74 / 94 40% 2 11.07.2027 -
Kevin Rodríguez Colon Actif 66 / 92 40% 2 11.07.2027 -
Yerry Garcia La Equidad Actif 76 / 85 40% 2 11.07.2027 -
Nicolás Queiroz Wanderers Actif 85 / 102 40% 1 11.07.2027 -
Iowane Matanisiga Labasa Actif 75 / 74 40% 2 10.07.2027 -
Federico Montiel Agropecuario Argentino Actif 76 / 107 40% 2 10.07.2027 -
Nahuel Yzaurralde Quilmes Actif 110 / 107 40% 2 10.07.2027 -
Jhoan Pinto Union Magdalena Actif 86 / 98 40% 1 10.07.2027 -
Jefferson Romero Real Cartagena Actif 89 / 105 40% 2 09.07.2027 -
Christian Gray Auckland City Actif 96 / 94 40% 1 08.07.2027 -
Yoimer Pacheco Union Magdalena Actif 71 / 77 40% 1 08.07.2027 -
Fabián Ocampos 12 de Octubre Actif 76 / 82 40% 1 08.07.2027 -
Felipe Pontoni Talleres Actif 102 / 102 40% 1 08.07.2027 -
Emilio Irureta Penarol Actif 70 / 64 40% 1 06.07.2027 -
Alex Nelson Hawke's Bay United Actif 72 / 74 40% 1 05.07.2027 -
Diego Cheuquepal Racing Actif 112 / 111 40% 5 04.07.2027 -
Maximiliano Campos San Telmo Actif 101 / 89 40% 2 04.07.2027 -
José Sanhueza Universidad de Concepcion Actif 98 / 88 40% 5 03.07.2027 -
Francisco Robinson San Martín Actif 94 / 91 40% 3 03.07.2027 -
Facundo Montiel Colegiales Actif 116 / 95 40% 1 03.07.2027 -
Vicente Lagos Santiago Wanderers Actif 102 / 105 40% 3 01.07.2027 -
Manuel Muzzio Estudiantes Actif 110 / 114 40% 2 30.06.2027 -
Fábio Alves Valledupar Actif 103 / 113 40% 3 29.06.2027 -
Lucas Romeo Quilmes Actif 105 / 85 40% 1 28.06.2027 -
Gerardo Díaz San Martín SJ Actif 79 / 109 40% 1 28.06.2027 -
Lorenzo González River Plate Actif 85 / 110 40% 3 27.06.2027 -
Salvador Martínez Ferro Carril Oeste Actif 68 / 103 40% 3 27.06.2027 -
Joaquín Soria Talleres Actif 76 / 94 40% 1 27.06.2027 -
Ignacio Cardozo Vélez Actif 102 / 83 40% 1 27.06.2027 -
Miguel Álvarez Tigres Actif 85 / 110 40% 3 26.06.2027 -
Ali Mekawir Navua Actif 59 / 59 40% 2 26.06.2027 -
Anthony Vilche Colon Actif 79 / 100 40% 1 26.06.2027 -
Franco Calderón Sarmiento Actif 100 / 98 40% 1 25.06.2027 -
Alejo Clementi Cretton Jaguares Actif 78 / 83 40% 1 24.06.2027 -
Santiago Saavedra Depor Actif 86 / 102 40% 1 23.06.2027 -
Bautista Degregorio Estudiantes Actif 76 / 96 40% 2 22.06.2027 -
Manuel Acutain Defensores Unidos Actif 96 / 105 40% 1 22.06.2027 -
Mateo Fernández Real Cartagena Actif 71 / 72 40% 1 22.06.2027 -
Ebaldo Pérez Barranquilla Actif 90 / 71 40% 1 20.06.2027 -
Cristóbal Marín Antofagasta Actif 63 / 87 40% 1 20.06.2027 -
Fabricio Aguirre Arsenal Actif 63 / 72 40% 2 19.06.2027 -
Ezequiel Cardozo Arsenal Actif 66 / 67 40% 2 19.06.2027 -
Juan Felipe Holguín Envigado Actif 108 / 84 40% 1 19.06.2027 -
Francisco Arias Gimnasia y Esgrima Actif 74 / 87 40% 1 19.06.2027 -
Ferney Rivadeneira Patriotas Actif 91 / 79 40% 1 19.06.2027 -
Noah McCann Central Coast Mariners Actif 87 / 80 40% 2 18.06.2027 -
Sebastián Flores Ferro Carril Oeste Actif 117 / 112 40% 2 18.06.2027 -
Sebastián Caballero Barranquilla Actif 96 / 102 40% 2 18.06.2027 -
Antonio Roble San Telmo Actif 86 / 88 40% 1 18.06.2027 -
Lucas Machado Defensor Sporting Actif 98 / 100 40% 1 18.06.2027 -
Martín González San Telmo Actif 99 / 82 40% 2 17.06.2027 -
Adriano Martínez Madryn Actif 104 / 102 40% 1 17.06.2027 -
Alexander Nieves Metropolitanos Actif 90 / 66 40% 1 16.06.2027 -
Mateo Serra San Miguel Actif 86 / 84 40% 2 15.06.2027 -
Agustín Mieres Atlanta Actif 89 / 104 40% 1 15.06.2027 -
Valentín Catalán Argentinos Juniors Actif 106 / 95 40% 3 14.06.2027 -
Joaquín Santos Defensor Sporting Actif 66 / 72 40% 1 14.06.2027 -
Francisco Burgio Oriental Actif 87 / 77 40% 3 13.06.2027 -
Mateo Rodríguez Quilmes Actif 82 / 83 40% 2 13.06.2027 -
Ignacio Gamarra Defensa y Justicia Actif 99 / 101 40% 1 13.06.2027 -
Juan Manuel Mazzolo Maipú Actif 96 / 94 40% 2 11.06.2027 -
Kayne Razmovski Perth Glory Actif 76 / 82 40% 1 11.06.2027 -
Gonzalo Gutiérrez San Martín Actif 103 / 91 40% 1 11.06.2027 -
Elías Santini Colón Actif 93 / 84 40% 2 09.06.2027 -
Manuel Leal Estudiantes Actif 94 / 69 40% 1 08.06.2027 -
Facundo Lemos Albion Actif 111 / 109 40% 1 07.06.2027 -
Juan Ron Metropolitanos Actif 74 / 81 40% 1 07.06.2027 -
Emiliano Ozuna Ferro Carril Oeste Actif 114 / 125 40% 1 07.06.2027 -
Joaquín Bassani Maipú Actif 113 / 120 40% 1 06.06.2027 -
Lucas Camejo River Plate Actif 73 / 106 40% 1 06.06.2027 -
Tiziano Godoy Boa Actif 76 / 91 40% 1 05.06.2027 -
Diego Daguerre Cerro Largo Actif 71 / 81 40% 1 05.06.2027 -
Alan Brítez Union La Calera Actif 71 / 104 40% 1 05.06.2027 -
Tadeo Polli San Martín Actif 83 / 81 40% 1 05.06.2027 -
Bruno Borda Ferro Carril Oeste Actif 57 / 96 40% 1 04.06.2027 -
Mateo Rodríguez Estudiantes Actif 70 / 109 40% 1 04.06.2027 -
Francisco Coirolo Atenas Refusé 107 / 111 67% 5 03.06.2027 -
Joaquín Bigo Tristán Suárez Actif 94 / 93 40% 2 03.06.2027 -
Lautaro Erchego Barracas Central Actif 62 / 78 40% 1 03.06.2027 -
Ezequiel Pacheco Chaco For Ever Actif 93 / 85 40% 1 02.06.2027 -
Xavier Stella Central Coast Mariners Actif 67 / 66 40% 1 02.06.2027 -
Romario Murcia Santa Fe Actif 113 / 90 40% 1 30.05.2027 -
Santiago Mondragón Deportivo Cali Actif 71 / 92 40% 1 30.05.2027 -
Thomas González Cerro Largo Actif 91 / 71 40% 1 28.05.2027 -
Alfredo Martinez Universitario Popayan Actif 105 / 82 40% 3 27.05.2027 -
Fabrizio Almeida San Miguel Actif 95 / 78 40% 1 27.05.2027 -
Luciano Recalde Quilmes Actif 123 / 131 40% 1 26.05.2027 -
Federico Amestoy Miramar Misiones Actif 63 / 65 40% 1 26.05.2027 -
Juan Martín Rojas Morón Actif 110 / 128 40% 2 25.05.2027 -
Fabrizio Delgadillo Ferro Carril Oeste Actif 64 / 71 40% 1 25.05.2027 -
Jonás Ravano Colón Actif 99 / 89 40% 1 24.05.2027 -
Agustín Reynoso Boca Juniors Actif 95 / 90 40% 1 23.05.2027 -
Stefano Condino All Boys Actif 86 / 96 40% 1 23.05.2027 -
Román Sequeira Vélez Actif 70 / 78 40% 1 22.05.2027 -
Matías Pandiella Ferro Carril Oeste Actif 76 / 113 40% 3 21.05.2027 -
Gali Balanta Deportes Tolima Actif 91 / 94 40% 2 21.05.2027 -
Juan David Bacca Iquique Actif 93 / 103 40% 1 19.05.2027 -
Nicolas Restrepo Leones Actif 101 / 103 40% 3 18.05.2027 -
Maicol León Huachipato Actif 107 / 103 40% 2 17.05.2027 -
Jafé Pérez Bogota Actif 103 / 95 40% 1 17.05.2027 -
Esteban Ojeda Estudiantes Actif 87 / 79 40% 1 17.05.2027 -
Martín García Colo-Colo Actif 87 / 103 40% 1 16.05.2027 -
Xolani Tshaka Central Coast Mariners Actif 61 / 83 40% 1 14.05.2027 -
David Mojica Union Magdalena Actif 87 / 99 40% 1 13.05.2027 -
Alejandro Cardona Leones Actif 74 / 96 40% 1 13.05.2027 -
José Cabrera Union Magdalena Actif 91 / 107 40% 3 12.05.2027 -
Jonathan González River Plate Actif 84 / 73 40% 1 12.05.2027 -
Nicolás Fernández Tristán Suárez Actif 109 / 123 40% 1 11.05.2027 -
Matías Escobar San Miguel Actif 75 / 74 40% 1 11.05.2027 -
Mauro Chacón Maipú Actif 88 / 87 40% 1 10.05.2027 -
Pedro Baster Instituto Actif 63 / 87 40% 1 10.05.2027 -
Lorenzo Cores Defensores Actif 84 / 102 40% 2 08.05.2027 -
Jefferson Gutiérrez Cienciano Actif 92 / 97 40% 1 07.05.2027 -
Nicolás Mello Tacuarembo Actif 96 / 72 40% 2 06.05.2027 -
Catriel Peña Racing Actif 101 / 69 40% 1 05.05.2027 -
Ramiro Martino Independiente Actif 86 / 87 40% 1 05.05.2027 -
Keiber Roa Carabobo Actif 90 / 88 40% 1 02.05.2027 -
Lautaro Paz Central Córdoba SdE Actif 65 / 104 40% 1 02.05.2027 -
Fernando Rodríguez Almirante Brown Actif 92 / 107 40% 3 01.05.2027 -
Aldo Fuentes Juventud Actif 66 / 96 40% 1 01.05.2027 -
Zane Helweh Macarthur FC Actif 96 / 82 40% 3 30.04.2027 -
Lucas Piedrabuena Racing Actif 75 / 81 40% 1 30.04.2027 -
Thiago Yossen Madryn Actif 93 / 119 40% 1 30.04.2027 -
Ben van Dorssen Sydney FC Actif 75 / 69 40% 3 27.04.2027 -
Franco Yennerich Talleres Actif 90 / 99 40% 2 27.04.2027 -
Sebastián González Atletico Bucaramanga Actif 91 / 79 40% 2 27.04.2027 -
Leonardo González Colegiales Actif 111 / 105 40% 1 26.04.2027 -
Diego Píriz Danubio Actif 81 / 106 40% 1 26.04.2027 -
Bautista Ramos Tigre Actif 74 / 88 40% 1 25.04.2027 -
Joel Abraham Boston River Actif 70 / 77 40% 2 24.04.2027 -
Homero Sala Ferro Carril Oeste Actif 94 / 94 40% 1 23.04.2027 -
Kleber Díaz Union Magdalena Actif 104 / 70 40% 1 23.04.2027 -
Alexis Payes Arsenal Actif 94 / 113 40% 1 22.04.2027 -
Diego Capdevila Cerro Actif 96 / 95 40% 2 21.04.2027 -
Darián Romero Quilmes Actif 68 / 79 40% 1 21.04.2027 -
Patricio Schroeder Gimnasia La Plata Actif 75 / 99 40% 2 20.04.2027 -
Máximo Gómez Vélez Actif 72 / 91 40% 1 19.04.2027 -
Santiago González Nacional Actif 87 / 62 40% 1 18.04.2027 -
Axel Araujo San Lorenzo Actif 87 / 108 40% 1 17.04.2027 -
Esteban Arias Once Caldas Actif 72 / 101 40% 1 16.04.2027 -
Simón Bentancur Rentistas Actif 83 / 93 40% 1 16.04.2027 -
Santiago Videla Iquique Actif 79 / 76 40% 1 15.04.2027 -
Lautaro Vera Platense Actif 105 / 90 40% 1 15.04.2027 -
Isaac Méndez Central Espanol Actif 79 / 95 40% 1 14.04.2027 -
Mirko Bonfigli Maipú Actif 89 / 96 40% 1 14.04.2027 -
Freddy Arias Universitario Popayan Actif 75 / 81 40% 1 14.04.2027 -
Michael Barragán Jaguares Actif 79 / 106 40% 1 14.04.2027 -
Hílder Arboleda Union Magdalena Actif 62 / 68 40% 2 13.04.2027 -
Damián Constanzo River Plate Actif 87 / 106 40% 2 13.04.2027 -
Gaetano Motta Patronato Actif 85 / 94 40% 2 12.04.2027 -
Manuel Loaiza Envigado Actif 96 / 111 40% 1 12.04.2027 -
Bailey O'Neil Melbourne Victory Actif 75 / 96 40% 1 12.04.2027 -
Ryan Kalms Melbourne City Actif 83 / 90 40% 2 11.04.2027 -
José Tarán Montevideo City Torque Actif 102 / 109 40% 1 11.04.2027 -
Humberto García Real Cartagena Actif 81 / 101 40% 1 10.04.2027 -
Zachary De Jesus Sydney FC Actif 71 / 76 40% 2 09.04.2027 -
Gaspar Padilla Gimnasia y Esgrima Actif 91 / 72 40% 1 08.04.2027 -
Jesús Peralta Olimpia Actif 75 / 80 40% 1 07.04.2027 -
Emilio Crespo Atenas Actif 107 / 100 40% 1 07.04.2027 -
Tomás Salteño Rosario Central Actif 92 / 78 40% 2 05.04.2027 -
Lucas Escalante Ferro Carril Oeste Actif 73 / 85 40% 1 05.04.2027 -
Matías Barcia River Plate Actif 79 / 65 40% 1 05.04.2027 -
Gino Rizzo Rosario Central Actif 76 / 78 40% 1 03.04.2027 -
Iván Díaz Millonarios Actif 78 / 97 40% 2 02.04.2027 -
Kauê Canela Fortaleza Actif 102 / 109 40% 1 02.04.2027 -
Fernando Bravo Independiente Rivadavia Actif 110 / 93 40% 1 31.03.2027 -
Tobías Armas Talleres Actif 63 / 91 40% 1 29.03.2027 -
Emiliano Zacca Deportivo Riestra Actif 86 / 82 40% 1 27.03.2027 -
Thiago Sabella Banfield Actif 76 / 84 40% 1 26.03.2027 -
Rafael Andrade Almirante Brown Actif 91 / 89 40% 1 26.03.2027 -
Juan Felipe Hincapié Tigres Actif 100 / 91 40% 1 26.03.2027 -
Bautista La Licata Belgrano Actif 111 / 112 40% 1 25.03.2027 -
Jesús Rossi Alianza Atletico Actif 79 / 78 40% 1 24.03.2027 -
Tevita Koroi Ba Actif 43 / 44 40% 1 24.03.2027 -
Marcos Funes Albion Actif 60 / 59 40% 1 23.03.2027 -
Marcos Ferreira Miramar Misiones Actif 79 / 102 40% 1 23.03.2027 -
Matteo Larrosa Juventud Actif 78 / 98 40% 1 22.03.2027 -
Maykol Sánchez Antofagasta Actif 94 / 94 40% 1 21.03.2027 -
Enzo Arrubia Almirante Brown Actif 93 / 94 40% 1 21.03.2027 -
Luca Fernández Barracas Central Actif 80 / 91 40% 2 18.03.2027 -
Emiliano Casanova Boca Juniors Actif 79 / 94 40% 1 18.03.2027 -
Benjamín Zuqui Patronato Actif 91 / 105 40% 1 17.03.2027 -
Iosefo Verevou Tailevu Naitasiri Actif 70 / 72 40% 1 16.03.2027 -
Joaquín Fernández River Plate Actif 82 / 78 40% 3 08.03.2027 -
Bruno Rizzi Estudiantes Actif 87 / 108 40% 1 08.03.2027 -
Matías Zubowicz Ferro Carril Oeste Actif 104 / 112 40% 1 06.03.2027 -
Máximo Leguizamón Tigre Actif 69 / 93 40% 2 05.03.2027 -
Eyder Restrepo Llaneros Actif 100 / 121 40% 1 04.03.2027 -
Nahuel Urtasún Atlanta Actif 66 / 81 40% 2 01.03.2027 -
Ulises Abreliano Almirante Brown Actif 110 / 116 40% 2 26.02.2027 -
Joaquín Pereyra Estudiantes Actif 110 / 82 40% 1 26.02.2027 -
Carlos Casas San Telmo Actif 84 / 113 40% 1 24.02.2027 -
Facundo Giacopuzzi Madryn Actif 87 / 120 40% 1 23.02.2027 -
Mauro Rodas Sportivo Trinidense Actif 81 / 73 40% 1 21.02.2027 -
Francisco Razzeto Sarmiento Actif 76 / 90 40% 1 20.02.2027 -
Valentín Culasso Talleres Actif 108 / 109 40% 1 18.02.2027 -
Nicolás Ortiz Madryn Actif 87 / 115 40% 1 14.02.2027 -
Modibo Traoré Plaza Colonia Actif 89 / 102 40% 1 14.02.2027 -
Alexander Hernández Racing Actif 84 / 100 40% 1 12.02.2027 -
Santiago Gómez Deportes Quindio Actif 109 / 88 40% 1 12.02.2027 -
Gonzalo Laborda Racing Actif 119 / 116 40% 1 10.02.2027 -
Franco Mangudo Almagro Actif 101 / 83 40% 1 10.02.2027 -
Lucas Flores Racing Actif 108 / 106 40% 3 07.02.2027 -
Tomás Ganga Defensores Unidos Actif 77 / 99 40% 1 07.02.2027 -
Joshua Inserra Melbourne Victory Actif 84 / 98 40% 2 04.02.2027 -
Lautaro Gaitán Colón Actif 115 / 90 40% 1 04.02.2027 -
Lautaro Ávila Racing Actif 95 / 114 40% 2 02.02.2027 -
Gastón Vega Albion Actif 90 / 70 40% 1 01.02.2027 -
Ezequías Redín Plaza Colonia Actif 85 / 113 40% 1 28.01.2027 -
Jorge Peña Union La Calera Actif 101 / 83 40% 1 19.01.2027 -
Gian Piaggio Colón Actif 76 / 97 40% 4 13.01.2027 -
Kalaveti Sivoi Ba Actif 51 / 47 44% 1 02.01.2027 -
Rodrigo Ayala San Martín Actif 123 / 111 40% 1 01.01.2027 -
Brandon Comley Sydney FC Actif 80 / 77 40% 2 31.12.2026 -
Yurdy Ramos Real Santander Actif 69 / 101 40% 1 31.12.2026 -
Dante Jadli Temperley Actif 70 / 77 40% 1 31.12.2026 -
Víctor Reyes Deportes Tolima Actif 84 / 114 40% 2 28.12.2026 -
Alexis Dulón Huracán Actif 83 / 95 40% 1 28.12.2026 -
Benjamín Valenzuela Cobresal Actif 65 / 85 40% 1 26.12.2026 -
Iván Chaves Patronato Actif 105 / 122 40% 1 26.12.2026 -
Ian Pardo San Telmo Actif 97 / 117 40% 1 25.12.2026 -
Juan Pérez Racing Actif 109 / 108 40% 1 24.12.2026 -
Federico Dafonte Boston River Actif 96 / 80 40% 2 23.12.2026 -
Ramiro Enríquez Central Norte Actif 91 / 92 40% 1 23.12.2026 -
Julián Gurzi Quilmes Actif 114 / 98 40% 1 23.12.2026 -
Ernesto Aramburu Central Espanol Actif 77 / 78 40% 1 22.12.2026 -
Ezequiel Moya Chacarita Juniors Actif 75 / 92 40% 1 21.12.2026 -
Rodrigo Stocco Temperley Actif 91 / 111 40% 2 20.12.2026 -
Alejandro Leiva Patronato Actif 110 / 119 40% 1 17.12.2026 -
Maximiliano Zelaya Miramar Misiones Actif 98 / 72 40% 2 16.12.2026 -
Santiago Cáceres All Boys Actif 116 / 83 40% 1 16.12.2026 -
Juan Pablo Noce All Boys Actif 102 / 93 40% 1 15.12.2026 -
Nelson Guaiquil Huachipato Actif 81 / 96 40% 1 15.12.2026 -
Benito Paklayan Alvarado Actif 69 / 94 40% 1 12.12.2026 -
Mateo Cirigliano Almagro Actif 101 / 96 40% 1 10.12.2026 -
Seth Clark Sydney FC Actif 77 / 66 40% 2 08.12.2026 -
Matías Ferrari Chaco For Ever Actif 89 / 115 40% 1 06.12.2026 -
Valentino Huertas Morón Actif 83 / 120 40% 1 05.12.2026 -
David Fernández Unión de Santa Fe Actif 99 / 99 40% 1 05.12.2026 -
Gonzalo Cañete Chaco For Ever Actif 120 / 87 40% 1 03.12.2026 -
Thiago Romero Deportivo Riestra Actif 108 / 109 40% 1 03.12.2026 -
Daniel Riascos Alianza Petrolera Actif 75 / 101 40% 1 01.12.2026 -
Luciano Suárez Independiente Rivadavia Actif 89 / 116 40% 1 01.12.2026 -
Archie Lloyd Waitakere United Actif 79 / 73 40% 2 28.11.2026 -
Junior Palacios Alianza Petrolera Actif 84 / 82 40% 1 28.11.2026 -
Francisco Gerometta Godoy Cruz Actif 107 / 134 40% 1 27.11.2026 -
Tomás Arias Independiente Rivadavia Actif 80 / 97 40% 1 27.11.2026 -
Cristhofer Mesías Universidad de Concepcion Actif 99 / 123 40% 1 27.11.2026 -
Lautaro Kapij Ferro Carril Oeste Actif 108 / 82 40% 1 26.11.2026 -
Lucas Scicluna Perth Glory Actif 84 / 70 40% 2 24.11.2026 -
Joaquín Canadell Quilmes Actif 96 / 77 40% 2 24.11.2026 -
Juan González Atlético Tucumán Actif 76 / 110 40% 2 23.11.2026 -
Mathías Rodríguez Cerrito Actif 117 / 112 40% 1 22.11.2026 -
Tobías Ganduglia Independiente Rivadavia Actif 112 / 103 40% 1 22.11.2026 -
Jayden Smith Wellington Phoenix Actif 64 / 70 40% 3 21.11.2026 -
Enzo Colque Banfield Actif 110 / 102 40% 1 21.11.2026 -
Santiago Milano Liverpool Montevideo Actif 112 / 92 40% 1 21.11.2026 -
Gonzalo Escudero Racing Club Actif 90 / 103 40% 2 17.11.2026 -
Luis Guevara Real Cartagena Actif 120 / 104 40% 2 17.11.2026 -
Maximo Ingravidi Colón Actif 114 / 102 40% 2 17.11.2026 -
Adrián Ararat Real Cartagena Actif 74 / 99 40% 1 17.11.2026 -
Facundo Di Sibio Agropecuario Argentino Actif 74 / 102 40% 2 15.11.2026 -
Nicolás Churín Ferro Carril Oeste Actif 64 / 92 40% 1 15.11.2026 -
Alejo Fernández Temperley Actif 110 / 104 40% 1 15.11.2026 -
Facundo Yozwiak Quilmes Actif 102 / 76 40% 1 14.11.2026 -
Andres Sinisterra Cortulua Actif 90 / 105 40% 1 12.11.2026 -
Galo Vijande Rosario Central Actif 57 / 80 40% 1 06.11.2026 -
Dilan Ortiz Union Magdalena Actif 95 / 99 40% 2 04.11.2026 -
Ramiro Rúmbolo San Martín SJ Actif 99 / 84 40% 1 03.11.2026 -
Santino Bizai Patronato Actif 95 / 105 40% 1 02.11.2026 -
Exequiel Quintana Temperley Actif 60 / 83 40% 1 02.11.2026 -
Ben Mewett Western Sydney Wanderers Actif 57 / 84 40% 2 31.10.2026 -
Ezequiel Carreño Talleres Actif 71 / 82 40% 1 31.10.2026 -
Ricardo Cantero Libertad Actif 90 / 95 40% 1 31.10.2026 -
Máximo Suazo Central Norte Actif 95 / 94 40% 1 31.10.2026 -
Emanuel Quinteros Godoy Cruz Actif 105 / 117 40% 1 31.10.2026 -
Joaquín Obdrzalek Madryn Actif 115 / 87 40% 1 29.10.2026 -
Will McKay Macarthur FC Actif 82 / 92 40% 2 28.10.2026 -
Juan Fernándes Pinto Almagro Actif 86 / 92 40% 1 28.10.2026 -
Frey Berrio Envigado Actif 103 / 101 40% 1 28.10.2026 -
Martín Rodríguez Mitre Actif 108 / 126 40% 2 27.10.2026 -
Brayan Benítez Alianza Petrolera Actif 98 / 72 40% 1 27.10.2026 -
Gerónimo Patritti Gimnasia y Esgrima Actif 111 / 108 40% 2 26.10.2026 -
Facundo Basualdo Newell's Old Boys Actif 104 / 94 40% 1 23.10.2026 -
Hosine Bility Brisbane Roar Actif 86 / 89 40% 2 21.10.2026 -
Maximiliano González Morón Actif 124 / 109 40% 2 21.10.2026 -
Alejo Medina Agropecuario Argentino Actif 108 / 77 40% 1 21.10.2026 -
Matías González Penarol Actif 91 / 125 40% 3 19.10.2026 -
Daniel Arcos Deportes Quindio Actif 85 / 86 40% 2 19.10.2026 -
Felipe Carnicero Rosario Central Actif 96 / 87 40% 1 19.10.2026 -
Neider Parra Atletico Nacional Actif 92 / 103 40% 1 19.10.2026 -
Manuel Idiarte Juventud Actif 81 / 88 40% 2 16.10.2026 -
Emanuel Bonda Argentinos Juniors Actif 101 / 93 40% 1 13.10.2026 -
Alejandro Galván San Martín Actif 94 / 95 40% 1 13.10.2026 -
Nicolás Fernández Maipú Actif 97 / 124 40% 2 11.10.2026 -
Ciro Thompson Newell's Old Boys Actif 70 / 93 40% 1 11.10.2026 -
Tomás Chetelain Estudiantes Actif 78 / 81 40% 1 11.10.2026 -
Maximiliano Puig Barracas Central Actif 117 / 81 40% 1 11.10.2026 -
Marlon Flórez Jaguares Actif 62 / 86 40% 1 09.10.2026 -
Luis Mateus Atletico Bucaramanga Actif 59 / 83 40% 1 09.10.2026 -
Juan Redondo Chacarita Juniors Actif 98 / 74 40% 1 08.10.2026 -
Federico Pardiñas Progreso Actif 60 / 102 40% 1 08.10.2026 -
Jorge Espejo Universidad de Concepcion Actif 92 / 117 40% 1 06.10.2026 -
Ignacio Gentile San Telmo Actif 94 / 106 40% 1 05.10.2026 -
Amaro Maya Independiente Rivadavia Actif 76 / 104 40% 1 04.10.2026 -
Mateo Caballero Defensor Sporting Actif 89 / 107 40% 1 04.10.2026 -
Diego Mercado San Martín SJ Actif 122 / 123 40% 1 03.10.2026 -
Tommy Lewis Waitakere United Actif 67 / 68 40% 1 02.10.2026 -
Santino Gianoli Almirante Brown Actif 70 / 98 40% 1 01.10.2026 -
Jordan Vale Lautoka Actif 64 / 74 40% 1 30.09.2026 -
Gonzalo Melgarejo Chaco For Ever Actif 97 / 114 40% 1 30.09.2026 -
Uriel Ramos Defensa y Justicia Actif 80 / 83 40% 1 29.09.2026 -
Máximo Johnston Colón Actif 79 / 119 40% 1 25.09.2026 -
Bautista Pereira Danubio Actif 71 / 117 40% 1 24.09.2026 -
Tomás Martínez Racing Actif 85 / 97 40% 1 22.09.2026 -
Sebastián Alzate Once Caldas Actif 93 / 68 40% 1 21.09.2026 -
Genaro Giordani Gimnasia y Esgrima Actif 76 / 115 40% 1 20.09.2026 -
Ezequiel Medina Alvarado Actif 100 / 76 40% 1 20.09.2026 -
Tiziano Girard Defensores Unidos Actif 92 / 117 40% 1 19.09.2026 -
Felipe Coronel All Boys Actif 125 / 103 40% 1 18.09.2026 -
Luca Regiardo Newell's Old Boys Actif 81 / 107 40% 2 13.09.2026 -
Diego Vicente La Luz Actif 90 / 98 40% 1 12.09.2026 -
Joaquín Correa Huracán Actif 72 / 95 40% 1 12.09.2026 -
Román Zalazar Nueva Chicago Actif 109 / 93 40% 1 09.09.2026 -
Daniel Monardes San Luis Actif 96 / 110 40% 1 05.09.2026 -
Julián Marchio San Martín SJ Actif 96 / 101 40% 1 04.09.2026 -
Marcos Martínez Huracán Actif 103 / 97 40% 1 30.08.2026 -
Nahuel Manganelli San Martín Actif 127 / 125 40% 1 29.08.2026 -
Ernesto Pontoriero San Telmo Actif 62 / 71 40% 1 25.08.2026 -
Ulíses López Barracas Central Actif 93 / 97 40% 1 18.08.2026 -
Jesús Alvarenga Guarani Actif 93 / 104 40% 1 17.08.2026 -
Lautaro Puma Ferro Carril Oeste Actif 107 / 73 40% 1 17.08.2026 -
Matías Dalale Central Córdoba SdE Actif 64 / 91 40% 1 15.08.2026 -
Nicolás Goldstein Ferro Carril Oeste Actif 68 / 114 40% 1 15.08.2026 -
Alejandro Rojo Deportivo Cali Actif 85 / 91 40% 1 14.08.2026 -
Luciano Perdomo Chacarita Juniors Actif 91 / 113 40% 1 02.08.2026 -
Ignacio Antonio Colón Actif 102 / 102 40% 1 01.08.2026 -
Camilo Moya Union La Calera Actif 100 / 106 40% 1 01.08.2026 -